sensor_id;sensor_type;location;lat;lon;timestamp;P1;durP1;ratioP1;P2;durP2;ratioP2
64832;SDS011;51290;45.060;38.948;2023-03-11T00:00:52;5.03;;;2.78;;
64832;SDS011;51290;45.060;38.948;2023-03-11T00:03:18;4.63;;;2.78;;
64832;SDS011;51290;45.060;38.948;2023-03-11T00:05:47;4.45;;;2.97;;
64832;SDS011;51290;45.060;38.948;2023-03-11T00:08:15;6.65;;;3.80;;
64832;SDS011;51290;45.060;38.948;2023-03-11T00:10:44;4.10;;;2.85;;
64832;SDS011;51290;45.060;38.948;2023-03-11T00:13:12;4.28;;;2.67;;
64832;SDS011;51290;45.060;38.948;2023-03-11T00:15:39;3.17;;;2.28;;
64832;SDS011;51290;45.060;38.948;2023-03-11T00:18:06;5.47;;;2.97;;
64832;SDS011;51290;45.060;38.948;2023-03-11T00:20:34;4.15;;;2.50;;
64832;SDS011;51290;45.060;38.948;2023-03-11T00:23:02;4.25;;;2.35;;
64832;SDS011;51290;45.060;38.948;2023-03-11T00:25:31;3.67;;;2.15;;
64832;SDS011;51290;45.060;38.948;2023-03-11T00:27:58;3.17;;;2.65;;
64832;SDS011;51290;45.060;38.948;2023-03-11T00:30:25;3.22;;;2.42;;
64832;SDS011;51290;45.060;38.948;2023-03-11T00:32:52;5.53;;;2.83;;
64832;SDS011;51290;45.060;38.948;2023-03-11T00:35:21;3.63;;;2.70;;
64832;SDS011;51290;45.060;38.948;2023-03-11T00:37:51;10.25;;;2.83;;
64832;SDS011;51290;45.060;38.948;2023-03-11T00:40:19;3.78;;;2.13;;
64832;SDS011;51290;45.060;38.948;2023-03-11T00:42:46;3.28;;;2.53;;
64832;SDS011;51290;45.060;38.948;2023-03-11T00:45:12;3.33;;;2.40;;
64832;SDS011;51290;45.060;38.948;2023-03-11T00:47:39;5.97;;;2.58;;
64832;SDS011;51290;45.060;38.948;2023-03-11T00:50:06;4.15;;;2.47;;
64832;SDS011;51290;45.060;38.948;2023-03-11T00:52:34;2.05;;;1.88;;
64832;SDS011;51290;45.060;38.948;2023-03-11T00:55:00;2.78;;;2.30;;
64832;SDS011;51290;45.060;38.948;2023-03-11T00:57:26;3.22;;;2.38;;
64832;SDS011;51290;45.060;38.948;2023-03-11T00:59:54;3.55;;;2.38;;
64832;SDS011;51290;45.060;38.948;2023-03-11T01:02:20;3.22;;;2.47;;
64832;SDS011;51290;45.060;38.948;2023-03-11T01:04:47;5.13;;;3.05;;
64832;SDS011;51290;45.060;38.948;2023-03-11T01:07:18;3.53;;;2.40;;
64832;SDS011;51290;45.060;38.948;2023-03-11T01:09:44;5.65;;;3.25;;
64832;SDS011;51290;45.060;38.948;2023-03-11T01:12:11;7.78;;;2.58;;
64832;SDS011;51290;45.060;38.948;2023-03-11T01:14:36;6.40;;;3.38;;
64832;SDS011;51290;45.060;38.948;2023-03-11T01:17:02;4.53;;;3.15;;
64832;SDS011;51290;45.060;38.948;2023-03-11T01:19:29;7.78;;;3.53;;
64832;SDS011;51290;45.060;38.948;2023-03-11T01:21:55;10.30;;;3.72;;
64832;SDS011;51290;45.060;38.948;2023-03-11T01:24:20;5.20;;;2.78;;
64832;SDS011;51290;45.060;38.948;2023-03-11T01:26:46;4.80;;;2.72;;
64832;SDS011;51290;45.060;38.948;2023-03-11T01:29:12;5.88;;;3.13;;
64832;SDS011;51290;45.060;38.948;2023-03-11T01:31:38;4.40;;;3.10;;
64832;SDS011;51290;45.060;38.948;2023-03-11T01:34:05;5.05;;;3.08;;
64832;SDS011;51290;45.060;38.948;2023-03-11T01:36:31;5.50;;;3.90;;
64832;SDS011;51290;45.060;38.948;2023-03-11T01:38:57;5.00;;;3.35;;
64832;SDS011;51290;45.060;38.948;2023-03-11T01:41:23;6.13;;;2.72;;
64832;SDS011;51290;45.060;38.948;2023-03-11T01:43:52;3.38;;;2.47;;
64832;SDS011;51290;45.060;38.948;2023-03-11T01:49:01;4.30;;;2.85;;
64832;SDS011;51290;45.060;38.948;2023-03-11T01:51:38;8.85;;;2.90;;
64832;SDS011;51290;45.060;38.948;2023-03-11T01:54:18;3.85;;;2.15;;
64832;SDS011;51290;45.060;38.948;2023-03-11T01:56:50;4.75;;;2.97;;
64832;SDS011;51290;45.060;38.948;2023-03-11T01:59:22;6.95;;;3.53;;
64832;SDS011;51290;45.060;38.948;2023-03-11T02:01:54;3.95;;;2.38;;
64832;SDS011;51290;45.060;38.948;2023-03-11T02:04:22;3.35;;;2.78;;
64832;SDS011;51290;45.060;38.948;2023-03-11T02:06:48;4.35;;;2.90;;
64832;SDS011;51290;45.060;38.948;2023-03-11T02:09:14;4.63;;;3.03;;
64832;SDS011;51290;45.060;38.948;2023-03-11T02:11:40;5.00;;;3.72;;
64832;SDS011;51290;45.060;38.948;2023-03-11T02:14:07;6.85;;;3.15;;
64832;SDS011;51290;45.060;38.948;2023-03-11T02:16:34;4.50;;;2.83;;
64832;SDS011;51290;45.060;38.948;2023-03-11T02:19:03;5.97;;;3.50;;
64832;SDS011;51290;45.060;38.948;2023-03-11T02:21:40;3.47;;;2.70;;
64832;SDS011;51290;45.060;38.948;2023-03-11T02:26:56;4.53;;;2.33;;
64832;SDS011;51290;45.060;38.948;2023-03-11T02:29:26;3.42;;;2.65;;
64832;SDS011;51290;45.060;38.948;2023-03-11T02:31:53;3.38;;;2.70;;
64832;SDS011;51290;45.060;38.948;2023-03-11T02:34:28;11.23;;;3.67;;
64832;SDS011;51290;45.060;38.948;2023-03-11T02:36:57;6.53;;;3.10;;
64832;SDS011;51290;45.060;38.948;2023-03-11T02:39:31;3.72;;;2.63;;
64832;SDS011;51290;45.060;38.948;2023-03-11T02:41:58;4.30;;;2.85;;
64832;SDS011;51290;45.060;38.948;2023-03-11T02:44:27;5.05;;;2.65;;
64832;SDS011;51290;45.060;38.948;2023-03-11T02:46:53;4.70;;;3.15;;
64832;SDS011;51290;45.060;38.948;2023-03-11T02:49:21;3.78;;;2.80;;
64832;SDS011;51290;45.060;38.948;2023-03-11T02:51:47;4.15;;;2.78;;
64832;SDS011;51290;45.060;38.948;2023-03-11T02:54:13;3.20;;;2.25;;
64832;SDS011;51290;45.060;38.948;2023-03-11T02:56:41;2.88;;;2.15;;
64832;SDS011;51290;45.060;38.948;2023-03-11T02:59:07;2.72;;;2.30;;
64832;SDS011;51290;45.060;38.948;2023-03-11T03:01:33;4.88;;;3.13;;
64832;SDS011;51290;45.060;38.948;2023-03-11T03:03:59;3.78;;;2.35;;
64832;SDS011;51290;45.060;38.948;2023-03-11T03:06:26;3.60;;;2.75;;
64832;SDS011;51290;45.060;38.948;2023-03-11T03:08:53;4.15;;;2.75;;
64832;SDS011;51290;45.060;38.948;2023-03-11T03:11:19;3.90;;;2.42;;
64832;SDS011;51290;45.060;38.948;2023-03-11T03:13:47;5.53;;;3.45;;
64832;SDS011;51290;45.060;38.948;2023-03-11T03:16:14;4.63;;;3.03;;
64832;SDS011;51290;45.060;38.948;2023-03-11T03:18:40;3.00;;;2.55;;
64832;SDS011;51290;45.060;38.948;2023-03-11T03:21:07;5.38;;;3.25;;
64832;SDS011;51290;45.060;38.948;2023-03-11T03:23:33;5.15;;;3.22;;
64832;SDS011;51290;45.060;38.948;2023-03-11T03:26:03;5.63;;;3.78;;
64832;SDS011;51290;45.060;38.948;2023-03-11T03:28:31;4.80;;;3.58;;
64832;SDS011;51290;45.060;38.948;2023-03-11T03:31:04;4.13;;;2.83;;
64832;SDS011;51290;45.060;38.948;2023-03-11T03:33:32;5.97;;;3.70;;
64832;SDS011;51290;45.060;38.948;2023-03-11T03:35:58;5.18;;;3.63;;
64832;SDS011;51290;45.060;38.948;2023-03-11T03:38:29;5.82;;;3.60;;
64832;SDS011;51290;45.060;38.948;2023-03-11T03:40:55;6.47;;;3.20;;
64832;SDS011;51290;45.060;38.948;2023-03-11T03:43:22;9.55;;;4.13;;
64832;SDS011;51290;45.060;38.948;2023-03-11T03:45:58;3.85;;;2.92;;
64832;SDS011;51290;45.060;38.948;2023-03-11T03:48:30;5.57;;;3.40;;
64832;SDS011;51290;45.060;38.948;2023-03-11T03:51:04;7.97;;;3.72;;
64832;SDS011;51290;45.060;38.948;2023-03-11T03:53:33;5.47;;;3.97;;
64832;SDS011;51290;45.060;38.948;2023-03-11T03:56:07;8.90;;;4.13;;
64832;SDS011;51290;45.060;38.948;2023-03-11T03:58:35;4.07;;;3.10;;
64832;SDS011;51290;45.060;38.948;2023-03-11T04:01:02;6.68;;;3.65;;
64832;SDS011;51290;45.060;38.948;2023-03-11T04:03:29;8.02;;;4.78;;
64832;SDS011;51290;45.060;38.948;2023-03-11T04:06:07;4.68;;;3.03;;
64832;SDS011;51290;45.060;38.948;2023-03-11T04:08:36;5.63;;;3.20;;
64832;SDS011;51290;45.060;38.948;2023-03-11T04:11:02;6.18;;;3.85;;
64832;SDS011;51290;45.060;38.948;2023-03-11T04:13:31;7.97;;;3.65;;
64832;SDS011;51290;45.060;38.948;2023-03-11T04:15:58;5.47;;;3.17;;
64832;SDS011;51290;45.060;38.948;2023-03-11T04:18:24;3.38;;;2.72;;
64832;SDS011;51290;45.060;38.948;2023-03-11T04:20:51;4.88;;;2.63;;
64832;SDS011;51290;45.060;38.948;2023-03-11T04:23:17;8.85;;;4.03;;
64832;SDS011;51290;45.060;38.948;2023-03-11T04:25:42;5.45;;;3.53;;
64832;SDS011;51290;45.060;38.948;2023-03-11T04:28:08;4.03;;;2.72;;
64832;SDS011;51290;45.060;38.948;2023-03-11T04:30:35;6.75;;;3.60;;
64832;SDS011;51290;45.060;38.948;2023-03-11T04:33:01;5.72;;;3.17;;
64832;SDS011;51290;45.060;38.948;2023-03-11T04:35:28;5.20;;;3.60;;
64832;SDS011;51290;45.060;38.948;2023-03-11T04:37:54;5.32;;;3.35;;
64832;SDS011;51290;45.060;38.948;2023-03-11T04:40:22;6.05;;;3.67;;
64832;SDS011;51290;45.060;38.948;2023-03-11T04:42:49;5.40;;;3.45;;
64832;SDS011;51290;45.060;38.948;2023-03-11T04:45:15;5.93;;;3.47;;
64832;SDS011;51290;45.060;38.948;2023-03-11T04:47:47;4.95;;;3.45;;
64832;SDS011;51290;45.060;38.948;2023-03-11T04:50:14;6.25;;;3.67;;
64832;SDS011;51290;45.060;38.948;2023-03-11T04:52:41;5.85;;;3.78;;
64832;SDS011;51290;45.060;38.948;2023-03-11T04:55:07;8.90;;;4.65;;
64832;SDS011;51290;45.060;38.948;2023-03-11T04:57:33;6.38;;;4.05;;
64832;SDS011;51290;45.060;38.948;2023-03-11T05:00:02;5.47;;;3.40;;
64832;SDS011;51290;45.060;38.948;2023-03-11T05:02:35;6.72;;;4.40;;
64832;SDS011;51290;45.060;38.948;2023-03-11T05:05:01;4.78;;;3.75;;
64832;SDS011;51290;45.060;38.948;2023-03-11T05:07:27;5.57;;;3.83;;
64832;SDS011;51290;45.060;38.948;2023-03-11T05:09:54;5.78;;;4.10;;
64832;SDS011;51290;45.060;38.948;2023-03-11T05:12:20;9.15;;;4.78;;
64832;SDS011;51290;45.060;38.948;2023-03-11T05:14:50;9.98;;;4.25;;
64832;SDS011;51290;45.060;38.948;2023-03-11T05:17:16;6.43;;;4.43;;
64832;SDS011;51290;45.060;38.948;2023-03-11T05:19:45;6.40;;;3.90;;
64832;SDS011;51290;45.060;38.948;2023-03-11T05:22:18;8.40;;;4.43;;
64832;SDS011;51290;45.060;38.948;2023-03-11T05:24:45;7.05;;;4.40;;
64832;SDS011;51290;45.060;38.948;2023-03-11T05:27:15;9.25;;;4.40;;
64832;SDS011;51290;45.060;38.948;2023-03-11T05:29:45;4.43;;;3.45;;
64832;SDS011;51290;45.060;38.948;2023-03-11T05:32:12;5.90;;;3.65;;
64832;SDS011;51290;45.060;38.948;2023-03-11T05:34:39;6.20;;;3.58;;
64832;SDS011;51290;45.060;38.948;2023-03-11T05:37:06;5.47;;;3.58;;
64832;SDS011;51290;45.060;38.948;2023-03-11T05:39:33;5.03;;;3.60;;
64832;SDS011;51290;45.060;38.948;2023-03-11T05:41:59;5.95;;;3.83;;
64832;SDS011;51290;45.060;38.948;2023-03-11T05:44:26;10.15;;;4.55;;
64832;SDS011;51290;45.060;38.948;2023-03-11T05:46:54;9.35;;;4.88;;
64832;SDS011;51290;45.060;38.948;2023-03-11T05:49:20;7.60;;;4.68;;
64832;SDS011;51290;45.060;38.948;2023-03-11T05:51:49;6.55;;;3.95;;
64832;SDS011;51290;45.060;38.948;2023-03-11T05:54:16;8.73;;;4.93;;
64832;SDS011;51290;45.060;38.948;2023-03-11T05:56:46;6.88;;;3.80;;
64832;SDS011;51290;45.060;38.948;2023-03-11T05:59:13;9.13;;;4.65;;
64832;SDS011;51290;45.060;38.948;2023-03-11T06:01:40;8.70;;;5.00;;
64832;SDS011;51290;45.060;38.948;2023-03-11T06:04:07;10.35;;;4.15;;
64832;SDS011;51290;45.060;38.948;2023-03-11T06:06:34;6.35;;;4.10;;
64832;SDS011;51290;45.060;38.948;2023-03-11T06:09:00;5.55;;;3.50;;
64832;SDS011;51290;45.060;38.948;2023-03-11T06:11:28;6.55;;;4.03;;
64832;SDS011;51290;45.060;38.948;2023-03-11T06:13:56;4.75;;;3.25;;
64832;SDS011;51290;45.060;38.948;2023-03-11T06:16:24;6.38;;;3.67;;
64832;SDS011;51290;45.060;38.948;2023-03-11T06:18:52;5.55;;;3.45;;
64832;SDS011;51290;45.060;38.948;2023-03-11T06:21:20;6.43;;;3.78;;
64832;SDS011;51290;45.060;38.948;2023-03-11T06:23:48;7.32;;;3.33;;
64832;SDS011;51290;45.060;38.948;2023-03-11T06:26:15;6.03;;;3.88;;
64832;SDS011;51290;45.060;38.948;2023-03-11T06:28:45;9.20;;;3.78;;
64832;SDS011;51290;45.060;38.948;2023-03-11T06:31:20;8.55;;;3.90;;
64832;SDS011;51290;45.060;38.948;2023-03-11T06:33:55;4.95;;;2.95;;
64832;SDS011;51290;45.060;38.948;2023-03-11T06:36:22;6.82;;;4.10;;
64832;SDS011;51290;45.060;38.948;2023-03-11T06:38:52;5.25;;;3.47;;
64832;SDS011;51290;45.060;38.948;2023-03-11T06:41:21;4.95;;;3.30;;
64832;SDS011;51290;45.060;38.948;2023-03-11T06:43:47;5.05;;;2.78;;
64832;SDS011;51290;45.060;38.948;2023-03-11T06:46:15;4.20;;;2.85;;
64832;SDS011;51290;45.060;38.948;2023-03-11T06:48:43;16.27;;;2.85;;
64832;SDS011;51290;45.060;38.948;2023-03-11T06:51:17;5.20;;;3.15;;
64832;SDS011;51290;45.060;38.948;2023-03-11T06:53:47;3.25;;;2.75;;
64832;SDS011;51290;45.060;38.948;2023-03-11T06:56:16;4.50;;;3.10;;
64832;SDS011;51290;45.060;38.948;2023-03-11T06:58:47;8.13;;;3.03;;
64832;SDS011;51290;45.060;38.948;2023-03-11T07:01:16;3.72;;;3.05;;
64832;SDS011;51290;45.060;38.948;2023-03-11T07:03:44;5.15;;;3.22;;
64832;SDS011;51290;45.060;38.948;2023-03-11T07:06:13;6.25;;;2.55;;
64832;SDS011;51290;45.060;38.948;2023-03-11T07:08:51;7.22;;;2.85;;
64832;SDS011;51290;45.060;38.948;2023-03-11T07:11:19;4.60;;;3.22;;
64832;SDS011;51290;45.060;38.948;2023-03-11T07:13:50;3.80;;;2.90;;
64832;SDS011;51290;45.060;38.948;2023-03-11T07:16:19;4.05;;;3.00;;
64832;SDS011;51290;45.060;38.948;2023-03-11T07:18:49;3.28;;;2.63;;
64832;SDS011;51290;45.060;38.948;2023-03-11T07:21:18;4.38;;;2.90;;
64832;SDS011;51290;45.060;38.948;2023-03-11T07:23:46;8.20;;;3.38;;
64832;SDS011;51290;45.060;38.948;2023-03-11T07:26:14;3.50;;;2.28;;
64832;SDS011;51290;45.060;38.948;2023-03-11T07:28:42;4.70;;;3.05;;
64832;SDS011;51290;45.060;38.948;2023-03-11T07:31:09;4.60;;;2.55;;
64832;SDS011;51290;45.060;38.948;2023-03-11T07:33:37;5.68;;;2.92;;
64832;SDS011;51290;45.060;38.948;2023-03-11T07:36:04;4.47;;;2.88;;
64832;SDS011;51290;45.060;38.948;2023-03-11T07:38:35;3.58;;;2.78;;
64832;SDS011;51290;45.060;38.948;2023-03-11T07:41:02;3.95;;;2.70;;
64832;SDS011;51290;45.060;38.948;2023-03-11T07:43:29;2.92;;;2.20;;
64832;SDS011;51290;45.060;38.948;2023-03-11T07:48:51;3.83;;;2.70;;
64832;SDS011;51290;45.060;38.948;2023-03-11T07:51:18;13.73;;;3.00;;
64832;SDS011;51290;45.060;38.948;2023-03-11T07:53:51;5.10;;;2.85;;
64832;SDS011;51290;45.060;38.948;2023-03-11T07:56:19;4.20;;;2.80;;
64832;SDS011;51290;45.060;38.948;2023-03-11T07:58:48;7.15;;;3.00;;
64832;SDS011;51290;45.060;38.948;2023-03-11T08:01:15;6.85;;;3.08;;
64832;SDS011;51290;45.060;38.948;2023-03-11T08:03:47;3.00;;;2.58;;
64832;SDS011;51290;45.060;38.948;2023-03-11T08:06:16;5.35;;;2.67;;
64832;SDS011;51290;45.060;38.948;2023-03-11T08:08:42;4.10;;;2.50;;
64832;SDS011;51290;45.060;38.948;2023-03-11T08:11:09;3.92;;;2.88;;
64832;SDS011;51290;45.060;38.948;2023-03-11T08:13:37;5.53;;;2.33;;
64832;SDS011;51290;45.060;38.948;2023-03-11T08:16:05;5.13;;;3.00;;
64832;SDS011;51290;45.060;38.948;2023-03-11T08:18:32;6.45;;;2.65;;
64832;SDS011;51290;45.060;38.948;2023-03-11T08:21:02;4.38;;;3.38;;
64832;SDS011;51290;45.060;38.948;2023-03-11T08:23:29;3.13;;;2.35;;
64832;SDS011;51290;45.060;38.948;2023-03-11T08:25:55;3.10;;;2.20;;
64832;SDS011;51290;45.060;38.948;2023-03-11T08:28:21;2.92;;;2.25;;
64832;SDS011;51290;45.060;38.948;2023-03-11T08:30:47;3.17;;;2.40;;
64832;SDS011;51290;45.060;38.948;2023-03-11T08:33:13;8.35;;;2.60;;
64832;SDS011;51290;45.060;38.948;2023-03-11T08:35:39;4.88;;;2.75;;
64832;SDS011;51290;45.060;38.948;2023-03-11T08:38:05;6.50;;;2.83;;
64832;SDS011;51290;45.060;38.948;2023-03-11T08:40:31;3.88;;;2.40;;
64832;SDS011;51290;45.060;38.948;2023-03-11T08:42:57;3.38;;;2.10;;
64832;SDS011;51290;45.060;38.948;2023-03-11T08:45:23;3.50;;;2.35;;
64832;SDS011;51290;45.060;38.948;2023-03-11T08:47:49;4.10;;;2.20;;
64832;SDS011;51290;45.060;38.948;2023-03-11T08:50:16;6.82;;;3.40;;
64832;SDS011;51290;45.060;38.948;2023-03-11T08:52:43;4.35;;;2.30;;
64832;SDS011;51290;45.060;38.948;2023-03-11T08:55:11;3.13;;;2.65;;
64832;SDS011;51290;45.060;38.948;2023-03-11T08:57:39;3.70;;;2.67;;
64832;SDS011;51290;45.060;38.948;2023-03-11T09:00:05;7.78;;;3.10;;
64832;SDS011;51290;45.060;38.948;2023-03-11T09:02:33;3.78;;;2.80;;
64832;SDS011;51290;45.060;38.948;2023-03-11T09:04:59;6.07;;;2.80;;
64832;SDS011;51290;45.060;38.948;2023-03-11T09:07:25;4.53;;;2.97;;
64832;SDS011;51290;45.060;38.948;2023-03-11T09:09:51;3.47;;;2.67;;
64832;SDS011;51290;45.060;38.948;2023-03-11T09:12:19;3.90;;;2.63;;
64832;SDS011;51290;45.060;38.948;2023-03-11T09:14:45;5.07;;;2.53;;
64832;SDS011;51290;45.060;38.948;2023-03-11T09:17:11;4.00;;;2.10;;
64832;SDS011;51290;45.060;38.948;2023-03-11T09:19:38;3.85;;;2.78;;
64832;SDS011;51290;45.060;38.948;2023-03-11T09:22:04;3.50;;;2.22;;
64832;SDS011;51290;45.060;38.948;2023-03-11T09:24:34;5.50;;;2.75;;
64832;SDS011;51290;45.060;38.948;2023-03-11T09:27:00;3.05;;;2.60;;
64832;SDS011;51290;45.060;38.948;2023-03-11T09:29:27;5.60;;;2.80;;
64832;SDS011;51290;45.060;38.948;2023-03-11T09:31:53;4.25;;;3.00;;
64832;SDS011;51290;45.060;38.948;2023-03-11T09:34:20;2.90;;;2.30;;
64832;SDS011;51290;45.060;38.948;2023-03-11T09:36:46;3.75;;;2.88;;
64832;SDS011;51290;45.060;38.948;2023-03-11T09:39:12;6.32;;;2.80;;
64832;SDS011;51290;45.060;38.948;2023-03-11T09:44:16;5.32;;;3.22;;
64832;SDS011;51290;45.060;38.948;2023-03-11T09:46:56;7.07;;;2.85;;
64832;SDS011;51290;45.060;38.948;2023-03-11T09:52:32;4.10;;;2.80;;
64832;SDS011;51290;45.060;38.948;2023-03-11T09:55:02;6.75;;;4.00;;
64832;SDS011;51290;45.060;38.948;2023-03-11T09:57:31;5.13;;;3.08;;
64832;SDS011;51290;45.060;38.948;2023-03-11T10:00:00;4.40;;;2.85;;
64832;SDS011;51290;45.060;38.948;2023-03-11T10:02:37;3.97;;;2.90;;
64832;SDS011;51290;45.060;38.948;2023-03-11T10:07:34;4.07;;;2.60;;
64832;SDS011;51290;45.060;38.948;2023-03-11T10:10:04;9.90;;;3.58;;
64832;SDS011;51290;45.060;38.948;2023-03-11T10:15:12;5.32;;;3.35;;
64832;SDS011;51290;45.060;38.948;2023-03-11T10:31:59;4.60;;;3.00;;
64832;SDS011;51290;45.060;38.948;2023-03-11T10:34:42;6.35;;;2.50;;
64832;SDS011;51290;45.060;38.948;2023-03-11T10:40:29;5.07;;;2.50;;
64832;SDS011;51290;45.060;38.948;2023-03-11T10:45:37;7.95;;;3.35;;
64832;SDS011;51290;45.060;38.948;2023-03-11T10:48:15;4.47;;;3.10;;
64832;SDS011;51290;45.060;38.948;2023-03-11T10:50:49;4.35;;;3.40;;
64832;SDS011;51290;45.060;38.948;2023-03-11T10:53:18;4.03;;;2.40;;
64832;SDS011;51290;45.060;38.948;2023-03-11T10:55:46;5.57;;;3.08;;
64832;SDS011;51290;45.060;38.948;2023-03-11T10:58:16;5.38;;;3.17;;
64832;SDS011;51290;45.060;38.948;2023-03-11T11:00:44;5.25;;;3.25;;
64832;SDS011;51290;45.060;38.948;2023-03-11T11:03:13;6.70;;;3.08;;
64832;SDS011;51290;45.060;38.948;2023-03-11T11:05:55;8.93;;;3.40;;
64832;SDS011;51290;45.060;38.948;2023-03-11T11:08:30;10.32;;;3.72;;
64832;SDS011;51290;45.060;38.948;2023-03-11T11:11:01;7.25;;;3.60;;
64832;SDS011;51290;45.060;38.948;2023-03-11T11:13:29;8.27;;;3.47;;
64832;SDS011;51290;45.060;38.948;2023-03-11T11:18:34;13.40;;;4.65;;
64832;SDS011;51290;45.060;38.948;2023-03-11T11:21:08;5.50;;;3.30;;
64832;SDS011;51290;45.060;38.948;2023-03-11T11:23:43;8.02;;;3.63;;
64832;SDS011;51290;45.060;38.948;2023-03-11T11:26:16;6.88;;;3.25;;
64832;SDS011;51290;45.060;38.948;2023-03-11T11:28:43;5.50;;;3.55;;
64832;SDS011;51290;45.060;38.948;2023-03-11T11:31:22;5.97;;;3.13;;
64832;SDS011;51290;45.060;38.948;2023-03-11T11:33:51;3.45;;;2.65;;
64832;SDS011;51290;45.060;38.948;2023-03-11T11:36:19;3.70;;;2.45;;
64832;SDS011;51290;45.060;38.948;2023-03-11T11:38:51;5.88;;;2.80;;
64832;SDS011;51290;45.060;38.948;2023-03-11T11:41:19;5.22;;;2.80;;
64832;SDS011;51290;45.060;38.948;2023-03-11T11:46:29;5.20;;;2.10;;
64832;SDS011;51290;45.060;38.948;2023-03-11T11:49:04;5.90;;;2.90;;
64832;SDS011;51290;45.060;38.948;2023-03-11T11:51:40;3.47;;;2.25;;
64832;SDS011;51290;45.060;38.948;2023-03-11T11:54:32;4.53;;;2.72;;
64832;SDS011;51290;45.060;38.948;2023-03-11T11:57:11;3.42;;;2.35;;
64832;SDS011;51290;45.060;38.948;2023-03-11T11:59:39;3.45;;;2.20;;
64832;SDS011;51290;45.060;38.948;2023-03-11T12:10:34;3.35;;;2.28;;
64832;SDS011;51290;45.060;38.948;2023-03-11T12:16:46;3.10;;;2.20;;
64832;SDS011;51290;45.060;38.948;2023-03-11T12:24:50;2.15;;;2.03;;
64832;SDS011;51290;45.060;38.948;2023-03-11T12:27:25;4.35;;;2.53;;
64832;SDS011;51290;45.060;38.948;2023-03-11T12:30:01;2.85;;;1.95;;
64832;SDS011;51290;45.060;38.948;2023-03-11T12:32:43;4.05;;;2.67;;
64832;SDS011;51290;45.060;38.948;2023-03-11T12:35:22;9.57;;;2.75;;
64832;SDS011;51290;45.060;38.948;2023-03-11T12:43:25;2.22;;;1.90;;
64832;SDS011;51290;45.060;38.948;2023-03-11T12:45:55;4.90;;;2.28;;
64832;SDS011;51290;45.060;38.948;2023-03-11T12:50:57;3.00;;;2.30;;
64832;SDS011;51290;45.060;38.948;2023-03-11T12:54:18;4.93;;;2.50;;
64832;SDS011;51290;45.060;38.948;2023-03-11T13:01:44;4.80;;;2.50;;
64832;SDS011;51290;45.060;38.948;2023-03-11T13:09:37;2.88;;;2.03;;
64832;SDS011;51290;45.060;38.948;2023-03-11T13:12:27;2.97;;;2.00;;
64832;SDS011;51290;45.060;38.948;2023-03-11T13:21:02;4.30;;;1.88;;
64832;SDS011;51290;45.060;38.948;2023-03-11T13:39:44;2.78;;;2.05;;
64832;SDS011;51290;45.060;38.948;2023-03-11T13:42:30;4.45;;;2.47;;
64832;SDS011;51290;45.060;38.948;2023-03-11T13:45:01;6.45;;;1.98;;
64832;SDS011;51290;45.060;38.948;2023-03-11T13:47:29;5.47;;;2.08;;
64832;SDS011;51290;45.060;38.948;2023-03-11T13:52:26;2.53;;;2.00;;
64832;SDS011;51290;45.060;38.948;2023-03-11T13:55:08;5.78;;;2.35;;
64832;SDS011;51290;45.060;38.948;2023-03-11T13:57:40;2.53;;;1.83;;
64832;SDS011;51290;45.060;38.948;2023-03-11T14:00:17;2.25;;;2.05;;
64832;SDS011;51290;45.060;38.948;2023-03-11T14:02:49;5.85;;;2.05;;
64832;SDS011;51290;45.060;38.948;2023-03-11T14:05:38;3.03;;;2.08;;
64832;SDS011;51290;45.060;38.948;2023-03-11T14:10:53;7.53;;;2.80;;
64832;SDS011;51290;45.060;38.948;2023-03-11T14:13:22;3.58;;;2.40;;
64832;SDS011;51290;45.060;38.948;2023-03-11T14:18:40;3.53;;;2.25;;
64832;SDS011;51290;45.060;38.948;2023-03-11T14:21:15;3.05;;;1.98;;
64832;SDS011;51290;45.060;38.948;2023-03-11T14:23:47;3.50;;;2.00;;
64832;SDS011;51290;45.060;38.948;2023-03-11T14:26:15;2.42;;;2.08;;
64832;SDS011;51290;45.060;38.948;2023-03-11T14:28:53;2.45;;;1.63;;
64832;SDS011;51290;45.060;38.948;2023-03-11T14:33:54;2.80;;;2.30;;
64832;SDS011;51290;45.060;38.948;2023-03-11T14:36:38;3.92;;;2.20;;
64832;SDS011;51290;45.060;38.948;2023-03-11T14:39:27;2.63;;;1.90;;
64832;SDS011;51290;45.060;38.948;2023-03-11T14:44:31;3.47;;;2.13;;
64832;SDS011;51290;45.060;38.948;2023-03-11T14:47:44;3.92;;;2.40;;
64832;SDS011;51290;45.060;38.948;2023-03-11T14:50:06;3.28;;;2.10;;
64832;SDS011;51290;45.060;38.948;2023-03-11T14:52:44;3.53;;;2.53;;
64832;SDS011;51290;45.060;38.948;2023-03-11T14:55:14;4.95;;;2.95;;
64832;SDS011;51290;45.060;38.948;2023-03-11T14:57:48;3.75;;;2.92;;
64832;SDS011;51290;45.060;38.948;2023-03-11T15:00:27;3.85;;;2.63;;
64832;SDS011;51290;45.060;38.948;2023-03-11T15:05:27;3.05;;;2.03;;
64832;SDS011;51290;45.060;38.948;2023-03-11T15:08:21;4.25;;;2.42;;
64832;SDS011;51290;45.060;38.948;2023-03-11T15:13:39;4.18;;;2.17;;
64832;SDS011;51290;45.060;38.948;2023-03-11T15:16:18;4.75;;;2.40;;
64832;SDS011;51290;45.060;38.948;2023-03-11T15:19:00;5.45;;;2.63;;
64832;SDS011;51290;45.060;38.948;2023-03-11T15:21:45;3.63;;;2.28;;
64832;SDS011;51290;45.060;38.948;2023-03-11T15:24:17;6.00;;;2.53;;
64832;SDS011;51290;45.060;38.948;2023-03-11T15:29:28;5.07;;;2.33;;
64832;SDS011;51290;45.060;38.948;2023-03-11T15:31:55;2.75;;;2.05;;
64832;SDS011;51290;45.060;38.948;2023-03-11T15:34:24;3.92;;;2.40;;
64832;SDS011;51290;45.060;38.948;2023-03-11T15:36:54;3.85;;;2.33;;
64832;SDS011;51290;45.060;38.948;2023-03-11T15:42:02;2.72;;;2.22;;
64832;SDS011;51290;45.060;38.948;2023-03-11T15:44:32;2.80;;;1.95;;
64832;SDS011;51290;45.060;38.948;2023-03-11T15:47:29;4.18;;;2.40;;
64832;SDS011;51290;45.060;38.948;2023-03-11T15:49:55;2.53;;;2.17;;
64832;SDS011;51290;45.060;38.948;2023-03-11T15:52:21;2.00;;;1.70;;
64832;SDS011;51290;45.060;38.948;2023-03-11T15:54:47;3.35;;;2.42;;
64832;SDS011;51290;45.060;38.948;2023-03-11T15:57:23;4.05;;;2.28;;
64832;SDS011;51290;45.060;38.948;2023-03-11T15:59:52;5.63;;;2.67;;
64832;SDS011;51290;45.060;38.948;2023-03-11T16:02:23;6.15;;;3.65;;
64832;SDS011;51290;45.060;38.948;2023-03-11T16:04:53;4.15;;;1.90;;
64832;SDS011;51290;45.060;38.948;2023-03-11T16:07:20;3.00;;;2.10;;
64832;SDS011;51290;45.060;38.948;2023-03-11T16:09:46;3.85;;;2.22;;
64832;SDS011;51290;45.060;38.948;2023-03-11T16:12:13;3.42;;;2.35;;
64832;SDS011;51290;45.060;38.948;2023-03-11T16:14:45;4.60;;;2.47;;
64832;SDS011;51290;45.060;38.948;2023-03-11T16:17:12;4.32;;;3.00;;
64832;SDS011;51290;45.060;38.948;2023-03-11T16:19:41;3.38;;;1.92;;
64832;SDS011;51290;45.060;38.948;2023-03-11T16:22:16;2.03;;;1.83;;
64832;SDS011;51290;45.060;38.948;2023-03-11T16:24:46;3.65;;;1.90;;
64832;SDS011;51290;45.060;38.948;2023-03-11T16:27:14;5.35;;;2.67;;
64832;SDS011;51290;45.060;38.948;2023-03-11T16:29:42;4.20;;;2.67;;
64832;SDS011;51290;45.060;38.948;2023-03-11T16:32:09;3.15;;;1.90;;
64832;SDS011;51290;45.060;38.948;2023-03-11T16:34:36;3.55;;;2.05;;
64832;SDS011;51290;45.060;38.948;2023-03-11T16:37:04;5.93;;;2.53;;
64832;SDS011;51290;45.060;38.948;2023-03-11T16:39:31;3.75;;;2.10;;
64832;SDS011;51290;45.060;38.948;2023-03-11T16:42:00;3.08;;;1.83;;
64832;SDS011;51290;45.060;38.948;2023-03-11T16:44:26;2.97;;;2.08;;
64832;SDS011;51290;45.060;38.948;2023-03-11T16:46:52;1.70;;;1.60;;
64832;SDS011;51290;45.060;38.948;2023-03-11T16:49:18;2.75;;;2.40;;
64832;SDS011;51290;45.060;38.948;2023-03-11T16:51:44;2.33;;;1.88;;
64832;SDS011;51290;45.060;38.948;2023-03-11T16:54:10;4.00;;;1.52;;